Time;durP1;ratioP1;P1;durP2;ratioP2;P2;SDS_P1;SDS_P2;PMS_P1;PMS_P2;Temp;Humidity;BMP_temperature;BMP_pressure;BME280_temperature;BME280_humidity;BME280_pressure;Samples;Min_cycle;Max_cycle;Signal;HPM_P1;HPM_P2
2022/04/17 00:02:03;;;;;;;2.77;1.63;;;;;;;;;;5104571;28;20241;-73
2022/04/17 00:04:31;;;;;;;1.90;1.70;;;;;;;;;;5107399;28;20668;-72
2022/04/17 00:06:59;;;;;;;1.43;1.33;;;;;;;;;;5110762;28;20235;-72
2022/04/17 00:09:27;;;;;;;2.80;1.63;;;;;;;;;;5119311;28;20197;-73
2022/04/17 00:11:56;;;;;;;1.43;1.33;;;;;;;;;;5119391;28;20231;-74
2022/04/17 00:14:24;;;;;;;1.50;1.40;;;;;;;;;;5119327;28;20684;-74
2022/04/17 00:16:54;;;;;;;1.63;1.53;;;;;;;;;;5119641;28;20602;-75
2022/04/17 00:19:22;;;;;;;1.90;1.80;;;;;;;;;;5118438;28;20201;-75
2022/04/17 00:21:50;;;;;;;1.33;1.30;;;;;;;;;;5117523;28;20564;-75
2022/04/17 00:24:18;;;;;;;1.70;1.60;;;;;;;;;;5117522;28;20296;-75
2022/04/17 00:26:46;;;;;;;1.60;1.50;;;;;;;;;;5117481;28;20308;-75
2022/04/17 00:29:15;;;;;;;2.00;1.50;;;;;;;;;;5117842;28;20211;-75
2022/04/17 00:31:43;;;;;;;1.80;1.67;;;;;;;;;;5118801;27;20239;-75
2022/04/17 00:34:11;;;;;;;2.47;1.70;;;;;;;;;;5118791;28;20205;-75
2022/04/17 00:36:39;;;;;;;1.80;1.70;;;;;;;;;;5119057;28;20233;-74
2022/04/17 00:39:07;;;;;;;2.30;1.90;;;;;;;;;;5119142;28;20215;-75
2022/04/17 00:41:35;;;;;;;1.20;1.20;;;;;;;;;;5119357;28;20200;-74
2022/04/17 00:44:03;;;;;;;2.00;1.80;;;;;;;;;;5116292;28;20284;-74
2022/04/17 00:46:32;;;;;;;1.47;1.40;;;;;;;;;;5112032;28;20225;-75
2022/04/17 00:49:01;;;;;;;1.80;1.70;;;;;;;;;;5118810;28;20197;-75
2022/04/17 00:51:29;;;;;;;2.73;1.63;;;;;;;;;;5118866;28;20294;-75
2022/04/17 00:53:57;;;;;;;1.83;1.70;;;;;;;;;;5118719;28;20222;-73
2022/04/17 00:56:25;;;;;;;2.00;1.80;;;;;;;;;;5118967;28;20224;-73
2022/04/17 00:58:54;;;;;;;1.90;1.80;;;;;;;;;;5119354;28;20291;-75
2022/04/17 01:01:21;;;;;;;1.77;1.67;;;;;;;;;;5119194;28;20196;-73
2022/04/17 01:03:51;;;;;;;1.70;1.60;;;;;;;;;;5118811;28;20575;-75
2022/04/17 01:06:19;;;;;;;1.73;1.63;;;;;;;;;;5119037;28;20236;-75
2022/04/17 01:08:47;;;;;;;2.40;1.47;;;;;;;;;;5118689;28;20204;-74
2022/04/17 01:11:17;;;;;;;1.80;1.70;;;;;;;;;;5118585;28;20235;-76
2022/04/17 01:13:45;;;;;;;3.73;1.70;;;;;;;;;;5118941;28;20205;-76
2022/04/17 01:16:14;;;;;;;1.80;1.70;;;;;;;;;;5120003;28;20576;-76
2022/04/17 01:18:57;;;;;;;1.80;1.70;;;;;;;;;;5119043;28;20201;-76
2022/04/17 01:21:27;;;;;;;2.30;2.10;;;;;;;;;;5118655;28;20201;-76
2022/04/17 01:26:59;;;;;;;1.70;1.60;;;;;;;;;;5118587;28;20224;-76
2022/04/17 01:29:29;;;;;;;1.80;1.70;;;;;;;;;;5118837;28;20222;-74
2022/04/17 01:31:57;;;;;;;2.47;1.63;;;;;;;;;;5118424;28;20234;-74
2022/04/17 01:34:25;;;;;;;1.50;1.40;;;;;;;;;;5118278;28;20203;-74
2022/04/17 01:36:54;;;;;;;2.17;1.63;;;;;;;;;;5117831;28;20220;-74
2022/04/17 01:39:22;;;;;;;3.57;2.07;;;;;;;;;;5117707;28;20209;-74
2022/04/17 01:41:51;;;;;;;2.67;1.50;;;;;;;;;;5118535;28;20211;-74
2022/04/17 01:44:19;;;;;;;2.27;1.80;;;;;;;;;;5118085;28;20204;-76
2022/04/17 01:46:47;;;;;;;1.77;1.67;;;;;;;;;;5117875;28;20221;-76
2022/04/17 01:49:16;;;;;;;3.27;1.60;;;;;;;;;;5118068;28;20208;-74
2022/04/17 01:51:44;;;;;;;3.07;1.50;;;;;;;;;;5118314;28;20224;-74
2022/04/17 01:54:15;;;;;;;1.40;1.30;;;;;;;;;;5117742;28;20311;-76
2022/04/17 01:56:43;;;;;;;1.93;1.77;;;;;;;;;;5117991;28;20231;-76
2022/04/17 01:59:12;;;;;;;1.33;1.23;;;;;;;;;;5118393;28;20208;-73
2022/04/17 02:01:40;;;;;;;3.97;2.20;;;;;;;;;;5118165;28;20197;-76
2022/04/17 02:04:09;;;;;;;1.93;1.70;;;;;;;;;;5117932;28;20215;-76
2022/04/17 02:06:39;;;;;;;1.60;1.50;;;;;;;;;;5118153;28;20224;-76
2022/04/17 02:09:08;;;;;;;2.00;1.83;;;;;;;;;;5117663;28;20205;-76
2022/04/17 02:11:38;;;;;;;1.93;1.70;;;;;;;;;;5117762;28;20235;-76
2022/04/17 02:14:06;;;;;;;2.20;1.50;;;;;;;;;;5118196;28;20205;-76
2022/04/17 02:16:34;;;;;;;2.43;1.90;;;;;;;;;;5117871;28;20217;-76
2022/04/17 02:19:03;;;;;;;1.60;1.50;;;;;;;;;;5117496;28;20201;-76
2022/04/17 02:21:31;;;;;;;1.63;1.50;;;;;;;;;;5117719;28;20197;-75
2022/04/17 02:24:00;;;;;;;1.60;1.50;;;;;;;;;;5117276;28;20571;-75
2022/04/17 02:26:28;;;;;;;2.07;1.83;;;;;;;;;;5117798;28;20312;-75
2022/04/17 02:28:58;;;;;;;1.60;1.50;;;;;;;;;;5117931;28;20215;-75
2022/04/17 02:31:27;;;;;;;2.17;1.57;;;;;;;;;;5118208;28;20225;-74
2022/04/17 02:33:57;;;;;;;3.23;1.80;;;;;;;;;;5118223;28;20235;-74
2022/04/17 02:36:25;;;;;;;2.97;1.60;;;;;;;;;;5118211;28;20224;-75
2022/04/17 02:38:54;;;;;;;2.00;1.80;;;;;;;;;;5117369;28;20211;-74
2022/04/17 02:41:22;;;;;;;1.70;1.60;;;;;;;;;;5117865;28;20204;-74
2022/04/17 02:43:50;;;;;;;1.70;1.60;;;;;;;;;;5117132;28;20299;-74
2022/04/17 02:49:01;;;;;;;1.97;1.87;;;;;;;;;;5116630;28;20223;-75
2022/04/17 02:51:29;;;;;;;2.47;1.83;;;;;;;;;;5117599;28;20699;-74
2022/04/17 02:53:57;;;;;;;1.60;1.50;;;;;;;;;;5117056;28;20219;-75
2022/04/17 02:56:25;;;;;;;2.37;2.00;;;;;;;;;;5117179;28;20708;-75
2022/04/17 02:58:54;;;;;;;1.80;1.70;;;;;;;;;;5117579;28;20652;-75
2022/04/17 03:07:09;;;;;;;3.43;3.00;;;;;;;;;;5104898;28;20231;-75
2022/04/17 03:09:37;;;;;;;2.03;1.93;;;;;;;;;;5119316;28;20205;-75
2022/04/17 03:12:05;;;;;;;2.53;1.87;;;;;;;;;;5118066;28;20220;-76
2022/04/17 03:14:33;;;;;;;2.10;1.90;;;;;;;;;;5117880;28;20197;-75
2022/04/17 03:17:04;;;;;;;2.07;1.97;;;;;;;;;;5121516;28;20309;-75
2022/04/17 03:19:32;;;;;;;1.90;1.80;;;;;;;;;;5121678;28;20205;-75
2022/04/17 03:22:01;;;;;;;2.13;2.03;;;;;;;;;;5121481;28;20624;-75
2022/04/17 03:24:28;;;;;;;2.00;1.90;;;;;;;;;;5120540;28;20200;-74
2022/04/17 03:26:56;;;;;;;4.10;2.20;;;;;;;;;;5120715;28;20229;-75
2022/04/17 03:29:25;;;;;;;2.23;2.03;;;;;;;;;;5121087;28;20213;-75
2022/04/17 03:31:53;;;;;;;1.80;1.70;;;;;;;;;;5121073;28;20220;-79
2022/04/17 03:34:22;;;;;;;2.10;1.63;;;;;;;;;;5120812;28;20205;-78
2022/04/17 03:36:50;;;;;;;1.77;1.67;;;;;;;;;;5120293;28;20234;-80
2022/04/17 03:39:18;;;;;;;2.20;1.90;;;;;;;;;;5106348;28;20204;-77
2022/04/17 03:41:46;;;;;;;2.57;1.80;;;;;;;;;;5120627;28;20292;-79
2022/04/17 03:44:14;;;;;;;2.40;2.10;;;;;;;;;;5116846;28;20241;-80
2022/04/17 03:46:42;;;;;;;6.80;1.77;;;;;;;;;;5113720;28;20699;-81
2022/04/17 03:49:10;;;;;;;2.20;2.00;;;;;;;;;;5120546;28;20211;-80
2022/04/17 03:51:40;;;;;;;3.00;2.07;;;;;;;;;;5120539;28;20205;-81
2022/04/17 03:54:08;;;;;;;1.73;1.63;;;;;;;;;;5121747;28;20283;-80
2022/04/17 03:56:36;;;;;;;1.57;1.47;;;;;;;;;;5120849;28;20213;-81
2022/04/17 03:59:04;;;;;;;1.70;1.60;;;;;;;;;;5120472;28;20209;-80
2022/04/17 04:01:32;;;;;;;1.80;1.67;;;;;;;;;;5120530;28;20660;-81
2022/04/17 04:04:00;;;;;;;2.30;2.07;;;;;;;;;;5119958;28;20293;-80
2022/04/17 04:06:28;;;;;;;1.83;1.73;;;;;;;;;;5120052;28;20324;-81
2022/04/17 04:08:57;;;;;;;1.80;1.70;;;;;;;;;;5119622;28;20232;-80
2022/04/17 04:11:25;;;;;;;2.53;1.90;;;;;;;;;;5120394;28;20208;-80
2022/04/17 04:13:54;;;;;;;2.00;1.90;;;;;;;;;;5120354;27;20225;-80
2022/04/17 04:16:23;;;;;;;1.83;1.73;;;;;;;;;;5119635;28;20615;-80
2022/04/17 04:18:51;;;;;;;2.20;2.00;;;;;;;;;;5118877;28;20205;-80
2022/04/17 04:21:19;;;;;;;3.00;1.97;;;;;;;;;;5119965;28;20205;-80
2022/04/17 04:23:46;;;;;;;2.47;2.27;;;;;;;;;;5119556;28;20204;-81
2022/04/17 04:26:16;;;;;;;2.43;2.20;;;;;;;;;;5119384;28;20229;-80
2022/04/17 04:28:43;;;;;;;2.23;2.03;;;;;;;;;;5120209;28;20205;-81
2022/04/17 04:31:12;;;;;;;2.70;2.17;;;;;;;;;;5118986;28;20211;-80
2022/04/17 04:33:40;;;;;;;3.30;2.00;;;;;;;;;;5118837;28;20269;-81
2022/04/17 04:36:09;;;;;;;2.30;2.07;;;;;;;;;;5119089;27;20225;-80
2022/04/17 04:38:37;;;;;;;2.00;1.90;;;;;;;;;;5112521;28;20652;-81
2022/04/17 04:41:05;;;;;;;2.03;1.87;;;;;;;;;;5118876;28;20212;-80
2022/04/17 04:43:35;;;;;;;3.67;2.07;;;;;;;;;;5113197;28;20675;-81
2022/04/17 04:46:08;;;;;;;2.33;2.10;;;;;;;;;;5118849;28;20231;-81
2022/04/17 04:51:22;;;;;;;2.47;2.27;;;;;;;;;;5118546;27;20279;-80
2022/04/17 04:53:50;;;;;;;2.03;1.83;;;;;;;;;;5118445;28;20216;-80
2022/04/17 04:56:19;;;;;;;2.03;1.93;;;;;;;;;;5118319;28;20224;-80
2022/04/17 04:58:48;;;;;;;2.13;2.00;;;;;;;;;;5118653;28;20280;-81
2022/04/17 05:01:17;;;;;;;3.60;2.13;;;;;;;;;;5118476;28;20211;-80
2022/04/17 05:03:46;;;;;;;3.03;2.83;;;;;;;;;;5117992;28;20266;-80
2022/04/17 05:06:14;;;;;;;2.40;2.07;;;;;;;;;;5118561;27;20224;-81
2022/04/17 05:08:42;;;;;;;1.80;1.70;;;;;;;;;;5109839;28;20546;-80
2022/04/17 05:11:10;;;;;;;6.03;2.50;;;;;;;;;;5118371;28;20288;-80
2022/04/17 05:13:39;;;;;;;2.30;2.10;;;;;;;;;;5117818;28;20722;-79
2022/04/17 05:16:08;;;;;;;2.50;2.30;;;;;;;;;;5118677;28;20300;-80
2022/04/17 05:18:37;;;;;;;3.07;2.10;;;;;;;;;;5118399;28;20200;-80
2022/04/17 05:21:05;;;;;;;3.07;2.20;;;;;;;;;;5118245;28;20201;-81
2022/04/17 05:23:36;;;;;;;2.40;2.20;;;;;;;;;;5117117;28;20664;-80
2022/04/17 05:26:05;;;;;;;3.03;2.10;;;;;;;;;;5117880;28;20251;-80
2022/04/17 05:28:33;;;;;;;2.97;2.67;;;;;;;;;;5117829;28;20201;-80
2022/04/17 05:31:01;;;;;;;2.63;2.10;;;;;;;;;;5117544;28;20287;-80
2022/04/17 05:33:31;;;;;;;2.30;2.10;;;;;;;;;;5117542;28;20695;-80
2022/04/17 05:35:58;;;;;;;2.53;1.90;;;;;;;;;;5117990;28;20312;-81
2022/04/17 05:38:27;;;;;;;2.17;1.97;;;;;;;;;;5117532;28;20197;-80
2022/04/17 05:40:55;;;;;;;2.17;1.97;;;;;;;;;;5117839;28;20227;-81
2022/04/17 05:43:23;;;;;;;2.30;2.10;;;;;;;;;;5117870;28;20574;-80
2022/04/17 05:45:51;;;;;;;4.43;2.60;;;;;;;;;;5114870;28;20276;-80
2022/04/17 05:48:19;;;;;;;2.70;2.47;;;;;;;;;;5117608;28;20213;-79
2022/04/17 05:50:49;;;;;;;2.87;1.97;;;;;;;;;;5117604;28;20211;-76
2022/04/17 05:53:18;;;;;;;1.93;1.83;;;;;;;;;;5116896;28;20303;-78
2022/04/17 05:55:46;;;;;;;2.57;2.00;;;;;;;;;;5117211;28;20216;-76
2022/04/17 05:58:14;;;;;;;4.30;2.53;;;;;;;;;;5117716;28;20283;-79
2022/04/17 06:00:44;;;;;;;2.10;2.00;;;;;;;;;;5117848;28;20207;-78
2022/04/17 06:03:15;;;;;;;2.17;1.97;;;;;;;;;;5117332;28;20255;-79
2022/04/17 06:05:44;;;;;;;3.00;2.27;;;;;;;;;;5117472;28;20228;-78
2022/04/17 06:08:13;;;;;;;2.47;1.73;;;;;;;;;;5117168;28;20630;-78
2022/04/17 06:10:41;;;;;;;2.13;2.03;;;;;;;;;;5117560;28;20197;-78
2022/04/17 06:13:09;;;;;;;2.13;2.00;;;;;;;;;;5117430;28;20594;-78
2022/04/17 06:15:38;;;;;;;2.53;2.33;;;;;;;;;;5117819;28;20322;-80
2022/04/17 06:18:06;;;;;;;2.63;2.00;;;;;;;;;;5116485;28;20201;-80
2022/04/17 06:20:34;;;;;;;3.17;2.60;;;;;;;;;;5116220;28;20231;-79
2022/04/17 06:23:02;;;;;;;3.47;2.80;;;;;;;;;;5115196;28;20205;-79
2022/04/17 06:25:32;;;;;;;2.00;1.87;;;;;;;;;;5115193;28;20220;-79
2022/04/17 06:28:00;;;;;;;2.60;1.90;;;;;;;;;;5117073;28;20204;-79
2022/04/17 06:30:28;;;;;;;2.50;2.17;;;;;;;;;;5116756;28;20201;-80
2022/04/17 06:32:57;;;;;;;2.70;1.97;;;;;;;;;;5114573;28;20199;-80
2022/04/17 06:35:25;;;;;;;4.90;2.50;;;;;;;;;;5116531;28;20224;-79
2022/04/17 06:37:53;;;;;;;3.53;2.83;;;;;;;;;;5116239;28;20200;-80
2022/04/17 06:40:22;;;;;;;2.10;2.00;;;;;;;;;;5108278;28;20198;-79
2022/04/17 06:42:52;;;;;;;2.80;2.10;;;;;;;;;;5106600;28;20198;-79
2022/04/17 06:45:20;;;;;;;2.37;2.17;;;;;;;;;;5112710;28;20221;-74
2022/04/17 06:47:48;;;;;;;4.07;2.20;;;;;;;;;;5109627;27;20202;-76
2022/04/17 06:50:18;;;;;;;2.40;2.07;;;;;;;;;;5112728;28;20680;-76
2022/04/17 06:52:46;;;;;;;2.37;2.17;;;;;;;;;;5109351;28;20265;-76
2022/04/17 06:55:14;;;;;;;2.30;2.10;;;;;;;;;;5113132;28;20220;-76
2022/04/17 06:57:45;;;;;;;5.27;2.40;;;;;;;;;;5113893;28;20629;-77
2022/04/17 07:00:15;;;;;;;2.20;2.00;;;;;;;;;;5117370;28;20201;-77
2022/04/17 07:02:43;;;;;;;2.77;2.50;;;;;;;;;;5114274;28;20594;-77
2022/04/17 07:05:12;;;;;;;2.07;1.87;;;;;;;;;;5114559;28;20189;-77
2022/04/17 07:07:40;;;;;;;3.37;2.60;;;;;;;;;;5120398;28;20287;-77
2022/04/17 07:10:09;;;;;;;2.00;1.80;;;;;;;;;;5120293;28;20201;-76
2022/04/17 07:12:37;;;;;;;2.30;2.10;;;;;;;;;;5120032;28;20204;-76
2022/04/17 07:15:11;;;;;;;2.63;2.00;;;;;;;;;;5120200;28;20217;-76
2022/04/17 07:17:41;;;;;;;3.67;2.30;;;;;;;;;;5120114;28;20193;-76
2022/04/17 07:20:09;;;;;;;2.50;2.30;;;;;;;;;;5119464;28;20690;-76
2022/04/17 07:22:38;;;;;;;2.90;2.47;;;;;;;;;;5117285;28;21443;-76
2022/04/17 07:25:07;;;;;;;2.53;2.33;;;;;;;;;;5118802;28;20727;-76
2022/04/17 07:27:36;;;;;;;3.60;2.20;;;;;;;;;;5115842;28;20548;-76
2022/04/17 07:30:04;;;;;;;2.70;2.03;;;;;;;;;;5114715;28;20196;-76
2022/04/17 07:32:32;;;;;;;4.83;2.30;;;;;;;;;;5119774;28;20201;-77
2022/04/17 07:35:01;;;;;;;2.00;1.90;;;;;;;;;;5118681;28;20307;-76
2022/04/17 07:37:32;;;;;;;3.10;2.33;;;;;;;;;;5118059;28;20289;-75
2022/04/17 07:39:59;;;;;;;3.17;2.30;;;;;;;;;;5110494;28;20246;-75
2022/04/17 07:42:28;;;;;;;2.50;2.30;;;;;;;;;;5115208;28;20284;-76
2022/04/17 07:44:56;;;;;;;3.67;2.20;;;;;;;;;;5116587;28;20205;-76
2022/04/17 07:47:24;;;;;;;4.27;2.50;;;;;;;;;;5119346;28;20300;-78
2022/04/17 07:49:52;;;;;;;2.77;2.30;;;;;;;;;;5119367;28;20201;-77
2022/04/17 07:52:21;;;;;;;4.23;2.20;;;;;;;;;;5119744;28;20694;-76
2022/04/17 07:54:50;;;;;;;2.10;2.00;;;;;;;;;;5118471;28;20311;-76
2022/04/17 07:57:18;;;;;;;2.33;2.13;;;;;;;;;;5119413;28;20223;-76
2022/04/17 07:59:46;;;;;;;3.73;2.37;;;;;;;;;;5117931;28;20283;-76
2022/04/17 08:02:39;;;;;;;2.77;2.30;;;;;;;;;;5115291;28;20679;-76
2022/04/17 08:05:08;;;;;;;2.30;2.10;;;;;;;;;;5118392;28;20196;-76
2022/04/17 08:07:38;;;;;;;4.03;2.40;;;;;;;;;;5119037;28;20207;-78
2022/04/17 08:10:06;;;;;;;4.77;2.33;;;;;;;;;;5119301;28;20219;-78
2022/04/17 08:12:34;;;;;;;3.77;2.77;;;;;;;;;;5118745;28;20647;-78
2022/04/17 08:15:02;;;;;;;2.67;2.20;;;;;;;;;;5119124;28;20581;-76
2022/04/17 08:17:30;;;;;;;4.70;2.80;;;;;;;;;;5119070;28;20197;-77
2022/04/17 08:19:58;;;;;;;3.20;2.33;;;;;;;;;;5118737;28;20640;-76
2022/04/17 08:22:26;;;;;;;2.87;2.50;;;;;;;;;;5118762;28;20281;-76
2022/04/17 08:24:55;;;;;;;3.70;2.40;;;;;;;;;;5118645;28;20201;-75
2022/04/17 08:27:23;;;;;;;3.33;3.03;;;;;;;;;;5118847;28;20227;-77
2022/04/17 08:29:52;;;;;;;2.63;2.43;;;;;;;;;;5118388;28;21802;-78
2022/04/17 08:32:20;;;;;;;2.90;2.50;;;;;;;;;;5118774;28;20687;-77
2022/04/17 08:34:48;;;;;;;2.43;2.27;;;;;;;;;;5118103;28;20227;-77
2022/04/17 08:37:16;;;;;;;2.53;2.33;;;;;;;;;;5118418;28;20220;-78
2022/04/17 08:39:44;;;;;;;2.90;2.70;;;;;;;;;;5118020;28;20204;-79
2022/04/17 08:42:13;;;;;;;4.07;2.33;;;;;;;;;;5118249;28;20219;-79
2022/04/17 08:44:41;;;;;;;2.87;2.60;;;;;;;;;;5116182;28;20199;-79
2022/04/17 08:47:10;;;;;;;2.70;2.30;;;;;;;;;;5118044;28;20221;-78
2022/04/17 08:49:38;;;;;;;2.70;2.47;;;;;;;;;;5118207;28;20247;-79
2022/04/17 08:52:08;;;;;;;2.40;2.20;;;;;;;;;;5118197;28;20201;-80
2022/04/17 08:54:38;;;;;;;3.37;2.43;;;;;;;;;;5118005;28;20205;-79
2022/04/17 08:57:06;;;;;;;2.90;2.47;;;;;;;;;;5117638;28;20699;-79
2022/04/17 08:59:35;;;;;;;3.10;2.17;;;;;;;;;;5115630;28;20319;-79
2022/04/17 09:02:10;;;;;;;2.60;2.40;;;;;;;;;;5116455;28;20227;-78
2022/04/17 09:04:38;;;;;;;2.80;2.20;;;;;;;;;;5116214;28;20192;-78
2022/04/17 09:07:07;;;;;;;3.13;2.57;;;;;;;;;;5118146;27;20220;-78
2022/04/17 09:09:38;;;;;;;2.33;2.10;;;;;;;;;;5117417;28;20667;-80
2022/04/17 09:12:06;;;;;;;3.17;2.40;;;;;;;;;;5117694;28;20304;-77
2022/04/17 09:14:41;;;;;;;2.83;1.93;;;;;;;;;;5117518;28;20243;-78
2022/04/17 09:17:11;;;;;;;2.53;2.00;;;;;;;;;;5117860;28;20220;-79
2022/04/17 09:19:39;;;;;;;2.33;2.17;;;;;;;;;;5117397;28;21641;-77
2022/04/17 09:22:08;;;;;;;3.60;2.50;;;;;;;;;;5118029;28;20201;-75
2022/04/17 09:24:36;;;;;;;2.40;2.20;;;;;;;;;;5116112;28;20686;-74
2022/04/17 09:27:05;;;;;;;2.37;2.10;;;;;;;;;;5117624;28;20217;-77
2022/04/17 09:29:34;;;;;;;2.50;2.30;;;;;;;;;;5117122;28;20670;-77
2022/04/17 09:32:05;;;;;;;2.80;2.60;;;;;;;;;;5117000;28;20690;-78
2022/04/17 09:34:43;;;;;;;2.30;2.10;;;;;;;;;;5116767;28;21969;-78
2022/04/17 09:37:15;;;;;;;2.40;2.20;;;;;;;;;;5116721;28;20213;-78
2022/04/17 09:39:44;;;;;;;3.67;2.63;;;;;;;;;;5116150;28;20609;-79
2022/04/17 09:42:12;;;;;;;2.60;2.33;;;;;;;;;;5117035;28;20197;-79
2022/04/17 09:44:54;;;;;;;3.30;2.20;;;;;;;;;;5116673;28;20249;-77
2022/04/17 09:47:24;;;;;;;2.53;2.33;;;;;;;;;;5116929;28;20226;-78
2022/04/17 09:49:59;;;;;;;5.03;2.40;;;;;;;;;;5114319;28;20257;-78
2022/04/17 09:52:31;;;;;;;2.93;2.63;;;;;;;;;;5116858;28;20199;-78
2022/04/17 09:55:00;;;;;;;3.90;2.63;;;;;;;;;;5115269;28;20571;-76
2022/04/17 09:57:29;;;;;;;2.60;2.40;;;;;;;;;;5116632;28;20627;-75
2022/04/17 09:59:58;;;;;;;2.47;2.30;;;;;;;;;;5116969;28;20201;-76
2022/04/17 10:02:27;;;;;;;2.07;1.97;;;;;;;;;;5116589;28;20248;-76
2022/04/17 10:04:55;;;;;;;2.87;2.20;;;;;;;;;;5117019;28;20201;-75
2022/04/17 10:07:24;;;;;;;2.67;2.43;;;;;;;;;;5117126;28;20224;-79
2022/04/17 10:09:52;;;;;;;4.47;2.40;;;;;;;;;;5116598;28;20665;-74
2022/04/17 10:12:21;;;;;;;3.40;2.67;;;;;;;;;;5117090;28;20196;-78
2022/04/17 10:14:50;;;;;;;2.63;2.30;;;;;;;;;;5116574;28;20197;-78
2022/04/17 10:17:19;;;;;;;2.30;1.73;;;;;;;;;;5113781;28;20608;-79
2022/04/17 10:19:49;;;;;;;2.30;2.10;;;;;;;;;;5121171;28;20192;-76
2022/04/17 10:22:20;;;;;;;2.10;1.90;;;;;;;;;;5121442;28;20333;-73
2022/04/17 10:24:54;;;;;;;1.90;1.80;;;;;;;;;;5119550;27;20231;-77
2022/04/17 10:27:33;;;;;;;2.27;1.90;;;;;;;;;;5116285;28;20759;-76
2022/04/17 10:30:04;;;;;;;2.23;2.10;;;;;;;;;;5121290;28;20207;-76
2022/04/17 10:32:51;;;;;;;2.37;2.17;;;;;;;;;;5121196;28;20211;-76
2022/04/17 10:35:27;;;;;;;2.03;1.93;;;;;;;;;;5120006;28;20235;-76
2022/04/17 10:38:14;;;;;;;3.03;2.83;;;;;;;;;;5119256;28;20208;-77
2022/04/17 10:40:49;;;;;;;2.07;1.87;;;;;;;;;;5119302;28;20203;-75
2022/04/17 10:43:17;;;;;;;2.60;2.40;;;;;;;;;;5120706;28;20200;-76
2022/04/17 10:46:04;;;;;;;1.97;1.87;;;;;;;;;;5110570;28;20720;-74
2022/04/17 10:48:32;;;;;;;2.80;2.47;;;;;;;;;;5109784;28;20209;-75
2022/04/17 10:51:12;;;;;;;2.37;2.13;;;;;;;;;;5106867;28;20204;-74
2022/04/17 10:53:49;;;;;;;2.90;2.20;;;;;;;;;;5107135;28;20561;-74
2022/04/17 10:56:17;;;;;;;3.20;2.30;;;;;;;;;;5106698;28;20288;-75
2022/04/17 10:58:51;;;;;;;2.63;2.07;;;;;;;;;;5105532;28;20644;-76
2022/04/17 11:01:33;;;;;;;3.17;2.20;;;;;;;;;;5109344;28;20219;-76
2022/04/17 11:04:15;;;;;;;2.60;2.23;;;;;;;;;;5113817;28;20589;-76
2022/04/17 11:06:45;;;;;;;3.67;2.50;;;;;;;;;;5119895;28;20217;-73
2022/04/17 11:09:14;;;;;;;2.57;2.37;;;;;;;;;;5120127;28;20207;-74
2022/04/17 11:11:44;;;;;;;2.50;2.30;;;;;;;;;;5120043;28;20205;-78
2022/04/17 11:14:13;;;;;;;2.67;2.20;;;;;;;;;;5119746;28;20201;-77
2022/04/17 11:16:49;;;;;;;3.47;2.33;;;;;;;;;;5119741;28;20225;-78
2022/04/17 11:19:18;;;;;;;2.87;2.00;;;;;;;;;;5119080;28;20651;-77
2022/04/17 11:21:50;;;;;;;2.33;2.13;;;;;;;;;;5119552;28;20207;-78
2022/04/17 11:24:18;;;;;;;1.90;1.73;;;;;;;;;;5120447;28;20205;-77
2022/04/17 11:27:06;;;;;;;2.93;2.00;;;;;;;;;;5120195;28;20743;-77
2022/04/17 11:29:34;;;;;;;3.27;2.13;;;;;;;;;;5115161;28;20208;-68
2022/04/17 11:32:03;;;;;;;1.97;1.77;;;;;;;;;;5119889;28;20205;-70
2022/04/17 11:34:44;;;;;;;2.40;2.20;;;;;;;;;;5119807;28;20672;-73
2022/04/17 11:37:13;;;;;;;2.47;2.23;;;;;;;;;;5113182;28;20231;-73
2022/04/17 11:39:41;;;;;;;2.27;2.07;;;;;;;;;;5115721;28;20709;-73
2022/04/17 11:42:10;;;;;;;5.07;2.03;;;;;;;;;;5114426;28;20644;-75
2022/04/17 11:44:40;;;;;;;2.40;2.20;;;;;;;;;;5114678;28;20232;-74
2022/04/17 11:47:10;;;;;;;2.10;2.00;;;;;;;;;;5119601;28;20227;-73
2022/04/17 11:49:40;;;;;;;3.20;2.00;;;;;;;;;;5119305;28;20200;-75
2022/04/17 11:52:11;;;;;;;2.60;2.40;;;;;;;;;;5119834;28;20201;-76
2022/04/17 11:54:43;;;;;;;2.60;2.40;;;;;;;;;;5118205;28;20236;-76
2022/04/17 11:57:12;;;;;;;2.60;2.40;;;;;;;;;;5117151;28;20320;-75
2022/04/17 11:59:47;;;;;;;1.97;1.87;;;;;;;;;;5119570;28;20208;-73
2022/04/17 12:02:16;;;;;;;2.30;2.03;;;;;;;;;;5119764;28;20200;-74
2022/04/17 12:04:44;;;;;;;2.40;2.20;;;;;;;;;;5119232;28;20249;-73
2022/04/17 12:07:13;;;;;;;2.53;2.00;;;;;;;;;;5119107;28;20299;-73
2022/04/17 12:09:43;;;;;;;2.10;2.00;;;;;;;;;;5118711;28;20784;-74
2022/04/17 12:12:11;;;;;;;4.60;3.60;;;;;;;;;;5119399;28;20215;-74
2022/04/17 12:14:39;;;;;;;3.20;2.90;;;;;;;;;;5118050;28;20203;-74
2022/04/17 12:17:12;;;;;;;2.33;2.13;;;;;;;;;;5118895;28;20231;-73
2022/04/17 12:19:49;;;;;;;2.30;2.13;;;;;;;;;;5119309;27;20200;-74
2022/04/17 12:22:18;;;;;;;3.07;1.90;;;;;;;;;;5117260;28;20200;-73
2022/04/17 12:24:48;;;;;;;2.17;1.70;;;;;;;;;;5114836;28;20248;-73
2022/04/17 12:27:19;;;;;;;2.70;2.03;;;;;;;;;;5118264;28;20634;-70
2022/04/17 12:29:47;;;;;;;3.73;1.70;;;;;;;;;;5119585;27;20197;-68
2022/04/17 12:32:16;;;;;;;2.20;2.00;;;;;;;;;;5118928;27;20205;-67
2022/04/17 12:34:45;;;;;;;2.03;1.83;;;;;;;;;;5119192;28;20280;-75
2022/04/17 12:37:22;;;;;;;3.33;2.83;;;;;;;;;;5118337;27;20220;-75
2022/04/17 12:39:52;;;;;;;2.90;1.93;;;;;;;;;;5116903;28;20215;-75
2022/04/17 12:42:20;;;;;;;2.27;2.07;;;;;;;;;;5116727;28;20215;-74
2022/04/17 12:44:48;;;;;;;2.00;1.90;;;;;;;;;;5112863;28;20201;-76
2022/04/17 12:47:16;;;;;;;2.63;2.00;;;;;;;;;;5118717;28;20227;-76
2022/04/17 12:49:44;;;;;;;2.60;2.27;;;;;;;;;;5114869;28;20216;-76
2022/04/17 12:52:21;;;;;;;2.47;2.27;;;;;;;;;;5118305;28;20655;-74
2022/04/17 12:54:49;;;;;;;2.13;2.03;;;;;;;;;;5118198;28;20306;-75
2022/04/17 12:57:21;;;;;;;2.50;2.30;;;;;;;;;;5118228;28;20239;-74
2022/04/17 12:59:50;;;;;;;2.00;1.83;;;;;;;;;;5118763;28;20223;-74
2022/04/17 13:02:28;;;;;;;2.33;2.13;;;;;;;;;;5077663;27;1459793;-74
2022/04/17 13:04:57;;;;;;;1.93;1.73;;;;;;;;;;5108093;28;20204;-75
2022/04/17 13:07:32;;;;;;;2.60;1.90;;;;;;;;;;5083583;28;20212;-74
2022/04/17 13:10:01;;;;;;;2.27;2.07;;;;;;;;;;5088364;28;20664;-75
2022/04/17 13:12:30;;;;;;;2.50;2.03;;;;;;;;;;5086803;28;20654;-74
2022/04/17 13:14:59;;;;;;;2.93;2.00;;;;;;;;;;5085118;28;20216;-75
2022/04/17 13:17:28;;;;;;;2.37;2.10;;;;;;;;;;5085423;28;20212;-75
2022/04/17 13:19:56;;;;;;;2.83;1.90;;;;;;;;;;5086442;28;20679;-74
2022/04/17 13:22:24;;;;;;;2.03;1.87;;;;;;;;;;5088434;28;20229;-74
2022/04/17 13:24:52;;;;;;;2.30;2.03;;;;;;;;;;5087991;28;20220;-74
2022/04/17 13:27:20;;;;;;;2.43;2.23;;;;;;;;;;5088396;28;20235;-74
2022/04/17 13:29:50;;;;;;;2.83;2.50;;;;;;;;;;5088724;28;20202;-75
2022/04/17 13:32:18;;;;;;;2.20;2.00;;;;;;;;;;5085288;28;20213;-74
2022/04/17 13:34:47;;;;;;;2.03;1.87;;;;;;;;;;5089068;28;20206;-74
2022/04/17 13:40:01;;;;;;;1.80;1.67;;;;;;;;;;5086536;28;20201;-74
2022/04/17 13:42:29;;;;;;;1.77;1.67;;;;;;;;;;5088616;28;20294;-74
2022/04/17 13:44:58;;;;;;;3.47;1.60;;;;;;;;;;5087999;28;20206;-77
2022/04/17 13:47:25;;;;;;;4.17;2.00;;;;;;;;;;5088368;28;20208;-76
2022/04/17 13:49:55;;;;;;;3.10;1.70;;;;;;;;;;5087858;28;20670;-75
2022/04/17 13:52:25;;;;;;;1.70;1.60;;;;;;;;;;5081678;28;20212;-73
2022/04/17 13:54:54;;;;;;;1.73;1.63;;;;;;;;;;5090697;28;20214;-75
2022/04/17 13:57:22;;;;;;;1.57;1.30;;;;;;;;;;5092372;28;20225;-76
2022/04/17 13:59:50;;;;;;;2.60;1.40;;;;;;;;;;5090889;28;20206;-76
2022/04/17 14:02:18;;;;;;;1.40;1.30;;;;;;;;;;5080842;28;20248;-76
2022/04/17 14:04:46;;;;;;;1.33;1.23;;;;;;;;;;5088266;28;20228;-77
2022/04/17 14:07:16;;;;;;;3.80;1.97;;;;;;;;;;5085478;28;20631;-78
2022/04/17 14:09:44;;;;;;;2.00;1.90;;;;;;;;;;5079966;28;20202;-77
2022/04/17 14:12:12;;;;;;;3.07;1.60;;;;;;;;;;5073065;28;20202;-76
2022/04/17 14:14:41;;;;;;;2.03;1.60;;;;;;;;;;5072601;28;20210;-77
2022/04/17 14:17:09;;;;;;;4.43;1.40;;;;;;;;;;5070410;28;20820;-76
2022/04/17 14:19:38;;;;;;;1.40;1.30;;;;;;;;;;5073832;28;20210;-77
2022/04/17 14:22:06;;;;;;;2.03;1.47;;;;;;;;;;5070852;28;20241;-76
2022/04/17 14:24:35;;;;;;;2.63;1.70;;;;;;;;;;5074811;28;20208;-78
2022/04/17 14:27:03;;;;;;;2.70;1.70;;;;;;;;;;5071476;28;20309;-76
2022/04/17 14:29:31;;;;;;;3.73;1.43;;;;;;;;;;5075279;28;20194;-76
2022/04/17 14:31:59;;;;;;;2.73;1.60;;;;;;;;;;5071031;28;20206;-75
2022/04/17 14:34:29;;;;;;;1.80;1.70;;;;;;;;;;5077783;28;20202;-75
2022/04/17 14:36:57;;;;;;;1.30;1.30;;;;;;;;;;5065262;28;20313;-75
2022/04/17 14:39:25;;;;;;;1.70;1.60;;;;;;;;;;5073829;28;20210;-76
2022/04/17 14:41:55;;;;;;;1.53;1.40;;;;;;;;;;5070230;28;20214;-76
2022/04/17 14:44:23;;;;;;;1.63;1.53;;;;;;;;;;5069524;28;20293;-75
2022/04/17 14:46:51;;;;;;;1.50;1.40;;;;;;;;;;5067371;28;20241;-75
2022/04/17 14:49:19;;;;;;;1.30;1.30;;;;;;;;;;5069565;28;20203;-76
2022/04/17 14:51:47;;;;;;;1.50;1.40;;;;;;;;;;5073970;28;20209;-75
2022/04/17 14:54:16;;;;;;;1.47;1.37;;;;;;;;;;5076815;28;20591;-74
2022/04/17 14:56:45;;;;;;;3.90;1.60;;;;;;;;;;5075875;28;20317;-74
2022/04/17 14:59:14;;;;;;;1.13;1.13;;;;;;;;;;5075918;28;20301;-74
2022/04/17 15:01:42;;;;;;;1.67;1.57;;;;;;;;;;5070632;28;20230;-76
2022/04/17 15:04:10;;;;;;;1.90;1.67;;;;;;;;;;5074361;28;20209;-73
2022/04/17 15:06:38;;;;;;;2.50;1.87;;;;;;;;;;5074888;28;20214;-73
2022/04/17 15:09:06;;;;;;;1.50;1.40;;;;;;;;;;5066297;28;20202;-75
2022/04/17 15:11:34;;;;;;;1.60;1.50;;;;;;;;;;5073541;28;20213;-76
2022/04/17 15:14:04;;;;;;;1.50;1.40;;;;;;;;;;5071630;28;20220;-76